sensor_id;sensor_type;location;lat;lon;timestamp;P1;durP1;ratioP1;P2;durP2;ratioP2
18046;SDS011;9148;51.454;13.862;2023-01-10T00:01:34;0.60;;;0.50;;
18046;SDS011;9148;51.454;13.862;2023-01-10T00:04:00;0.50;;;0.50;;
18046;SDS011;9148;51.454;13.862;2023-01-10T00:06:26;0.93;;;0.60;;
18046;SDS011;9148;51.454;13.862;2023-01-10T00:08:52;0.77;;;0.53;;
18046;SDS011;9148;51.454;13.862;2023-01-10T00:11:17;0.87;;;0.57;;
18046;SDS011;9148;51.454;13.862;2023-01-10T00:14:02;0.23;;;0.23;;
18046;SDS011;9148;51.454;13.862;2023-01-10T00:16:28;0.97;;;0.63;;
18046;SDS011;9148;51.454;13.862;2023-01-10T00:18:53;0.87;;;0.40;;
18046;SDS011;9148;51.454;13.862;2023-01-10T00:21:19;1.60;;;0.70;;
18046;SDS011;9148;51.454;13.862;2023-01-10T00:23:45;0.60;;;0.60;;
18046;SDS011;9148;51.454;13.862;2023-01-10T00:26:12;1.60;;;1.13;;
18046;SDS011;9148;51.454;13.862;2023-01-10T00:28:38;0.73;;;0.60;;
18046;SDS011;9148;51.454;13.862;2023-01-10T00:31:04;0.90;;;0.70;;
18046;SDS011;9148;51.454;13.862;2023-01-10T00:33:39;0.53;;;0.53;;
18046;SDS011;9148;51.454;13.862;2023-01-10T00:36:06;0.70;;;0.57;;
18046;SDS011;9148;51.454;13.862;2023-01-10T00:38:33;1.03;;;0.73;;
18046;SDS011;9148;51.454;13.862;2023-01-10T00:41:00;0.87;;;0.80;;
18046;SDS011;9148;51.454;13.862;2023-01-10T00:43:26;0.50;;;0.50;;
18046;SDS011;9148;51.454;13.862;2023-01-10T00:46:11;1.10;;;1.00;;
18046;SDS011;9148;51.454;13.862;2023-01-10T00:48:37;1.80;;;0.87;;
18046;SDS011;9148;51.454;13.862;2023-01-10T00:51:03;0.90;;;0.83;;
18046;SDS011;9148;51.454;13.862;2023-01-10T00:53:29;1.30;;;0.60;;
18046;SDS011;9148;51.454;13.862;2023-01-10T00:55:55;1.70;;;0.70;;
18046;SDS011;9148;51.454;13.862;2023-01-10T00:58:21;1.57;;;1.03;;
18046;SDS011;9148;51.454;13.862;2023-01-10T01:00:48;0.63;;;0.63;;
18046;SDS011;9148;51.454;13.862;2023-01-10T01:03:14;0.70;;;0.67;;
18046;SDS011;9148;51.454;13.862;2023-01-10T01:05:42;0.83;;;0.40;;
18046;SDS011;9148;51.454;13.862;2023-01-10T01:08:09;0.93;;;0.50;;
18046;SDS011;9148;51.454;13.862;2023-01-10T01:10:36;0.83;;;0.83;;
18046;SDS011;9148;51.454;13.862;2023-01-10T01:13:06;0.70;;;0.70;;
18046;SDS011;9148;51.454;13.862;2023-01-10T01:15:41;1.73;;;0.70;;
18046;SDS011;9148;51.454;13.862;2023-01-10T01:18:06;0.90;;;0.80;;
18046;SDS011;9148;51.454;13.862;2023-01-10T01:20:37;1.83;;;0.93;;
18046;SDS011;9148;51.454;13.862;2023-01-10T01:23:03;0.67;;;0.67;;
18046;SDS011;9148;51.454;13.862;2023-01-10T01:25:29;1.67;;;0.93;;
18046;SDS011;9148;51.454;13.862;2023-01-10T01:27:55;1.03;;;0.60;;
18046;SDS011;9148;51.454;13.862;2023-01-10T01:30:21;0.50;;;0.43;;
18046;SDS011;9148;51.454;13.862;2023-01-10T01:32:46;2.37;;;0.80;;
18046;SDS011;9148;51.454;13.862;2023-01-10T01:35:12;0.80;;;0.80;;
18046;SDS011;9148;51.454;13.862;2023-01-10T01:37:40;1.27;;;0.67;;
18046;SDS011;9148;51.454;13.862;2023-01-10T01:40:09;1.17;;;0.40;;
18046;SDS011;9148;51.454;13.862;2023-01-10T01:42:39;0.50;;;0.50;;
18046;SDS011;9148;51.454;13.862;2023-01-10T01:50:58;6.90;;;1.63;;
18046;SDS011;9148;51.454;13.862;2023-01-10T01:53:50;1.20;;;1.10;;
18046;SDS011;9148;51.454;13.862;2023-01-10T01:59:01;1.33;;;1.13;;
18046;SDS011;9148;51.454;13.862;2023-01-10T02:01:34;1.10;;;0.97;;
18046;SDS011;9148;51.454;13.862;2023-01-10T02:04:07;1.13;;;0.93;;
18046;SDS011;9148;51.454;13.862;2023-01-10T02:06:39;2.50;;;0.93;;
18046;SDS011;9148;51.454;13.862;2023-01-10T02:09:14;2.83;;;1.57;;
18046;SDS011;9148;51.454;13.862;2023-01-10T02:11:48;4.13;;;0.90;;
18046;SDS011;9148;51.454;13.862;2023-01-10T02:14:13;6.27;;;1.13;;
18046;SDS011;9148;51.454;13.862;2023-01-10T02:16:40;1.80;;;1.17;;
18046;SDS011;9148;51.454;13.862;2023-01-10T02:19:07;2.07;;;0.87;;
18046;SDS011;9148;51.454;13.862;2023-01-10T02:40:06;2.20;;;1.00;;
18046;SDS011;9148;51.454;13.862;2023-01-10T02:43:11;4.07;;;1.43;;
18046;SDS011;9148;51.454;13.862;2023-01-10T02:45:57;2.13;;;1.37;;
18046;SDS011;9148;51.454;13.862;2023-01-10T02:48:28;1.13;;;0.90;;
18046;SDS011;9148;51.454;13.862;2023-01-10T02:51:01;2.20;;;1.27;;
18046;SDS011;9148;51.454;13.862;2023-01-10T02:53:36;1.53;;;0.77;;
18046;SDS011;9148;51.454;13.862;2023-01-10T03:13:27;0.90;;;0.90;;
18046;SDS011;9148;51.454;13.862;2023-01-10T03:16:14;1.43;;;1.00;;
18046;SDS011;9148;51.454;13.862;2023-01-10T03:18:47;2.93;;;1.27;;
18046;SDS011;9148;51.454;13.862;2023-01-10T03:21:21;1.50;;;1.17;;
18046;SDS011;9148;51.454;13.862;2023-01-10T03:23:49;1.77;;;1.10;;
18046;SDS011;9148;51.454;13.862;2023-01-10T03:26:20;1.13;;;0.90;;
18046;SDS011;9148;51.454;13.862;2023-01-10T03:28:56;1.63;;;1.30;;
18046;SDS011;9148;51.454;13.862;2023-01-10T03:31:31;2.83;;;1.27;;
18046;SDS011;9148;51.454;13.862;2023-01-10T03:34:06;5.53;;;1.20;;
18046;SDS011;9148;51.454;13.862;2023-01-10T03:36:36;1.70;;;0.80;;
18046;SDS011;9148;51.454;13.862;2023-01-10T03:42:10;2.80;;;1.30;;
18046;SDS011;9148;51.454;13.862;2023-01-10T03:44:54;1.70;;;0.93;;
18046;SDS011;9148;51.454;13.862;2023-01-10T03:47:39;2.17;;;1.10;;
18046;SDS011;9148;51.454;13.862;2023-01-10T03:50:14;2.50;;;1.77;;
18046;SDS011;9148;51.454;13.862;2023-01-10T03:52:44;3.80;;;1.33;;
18046;SDS011;9148;51.454;13.862;2023-01-10T03:55:11;2.33;;;1.50;;
18046;SDS011;9148;51.454;13.862;2023-01-10T03:57:40;1.37;;;1.20;;
18046;SDS011;9148;51.454;13.862;2023-01-10T04:00:07;2.07;;;1.27;;
18046;SDS011;9148;51.454;13.862;2023-01-10T04:02:34;2.23;;;1.27;;
18046;SDS011;9148;51.454;13.862;2023-01-10T04:04:59;2.90;;;1.30;;
18046;SDS011;9148;51.454;13.862;2023-01-10T04:07:25;1.80;;;1.13;;
18046;SDS011;9148;51.454;13.862;2023-01-10T04:09:51;1.00;;;0.90;;
18046;SDS011;9148;51.454;13.862;2023-01-10T04:12:17;1.47;;;1.30;;
18046;SDS011;9148;51.454;13.862;2023-01-10T04:14:43;2.70;;;1.47;;
18046;SDS011;9148;51.454;13.862;2023-01-10T04:17:12;2.63;;;0.93;;
18046;SDS011;9148;51.454;13.862;2023-01-10T04:19:39;2.07;;;1.27;;
18046;SDS011;9148;51.454;13.862;2023-01-10T04:22:06;2.50;;;2.30;;
18046;SDS011;9148;51.454;13.862;2023-01-10T04:24:32;1.50;;;1.23;;
18046;SDS011;9148;51.454;13.862;2023-01-10T04:26:58;2.33;;;1.30;;
18046;SDS011;9148;51.454;13.862;2023-01-10T04:29:23;1.30;;;0.80;;
18046;SDS011;9148;51.454;13.862;2023-01-10T04:31:49;2.17;;;1.40;;
18046;SDS011;9148;51.454;13.862;2023-01-10T04:34:15;2.30;;;1.70;;
18046;SDS011;9148;51.454;13.862;2023-01-10T04:36:41;3.87;;;1.50;;
18046;SDS011;9148;51.454;13.862;2023-01-10T04:39:06;4.13;;;1.47;;
18046;SDS011;9148;51.454;13.862;2023-01-10T04:41:32;2.80;;;1.63;;
18046;SDS011;9148;51.454;13.862;2023-01-10T04:43:58;3.33;;;1.93;;
18046;SDS011;9148;51.454;13.862;2023-01-10T04:46:24;1.80;;;1.30;;
18046;SDS011;9148;51.454;13.862;2023-01-10T04:48:50;2.57;;;1.70;;
18046;SDS011;9148;51.454;13.862;2023-01-10T04:51:16;3.40;;;2.27;;
18046;SDS011;9148;51.454;13.862;2023-01-10T04:53:42;2.63;;;1.57;;
18046;SDS011;9148;51.454;13.862;2023-01-10T04:56:08;1.63;;;1.40;;
18046;SDS011;9148;51.454;13.862;2023-01-10T04:58:40;3.80;;;1.87;;
18046;SDS011;9148;51.454;13.862;2023-01-10T05:01:07;3.33;;;1.73;;
18046;SDS011;9148;51.454;13.862;2023-01-10T05:03:38;5.60;;;1.90;;
18046;SDS011;9148;51.454;13.862;2023-01-10T05:06:05;3.33;;;1.60;;
18046;SDS011;9148;51.454;13.862;2023-01-10T05:08:31;2.07;;;1.17;;
18046;SDS011;9148;51.454;13.862;2023-01-10T05:10:57;1.50;;;1.40;;
18046;SDS011;9148;51.454;13.862;2023-01-10T05:13:23;2.03;;;1.40;;
18046;SDS011;9148;51.454;13.862;2023-01-10T05:15:52;2.47;;;1.60;;
18046;SDS011;9148;51.454;13.862;2023-01-10T05:18:20;5.57;;;1.70;;
18046;SDS011;9148;51.454;13.862;2023-01-10T05:20:46;2.37;;;1.50;;
18046;SDS011;9148;51.454;13.862;2023-01-10T05:23:11;2.27;;;1.77;;
18046;SDS011;9148;51.454;13.862;2023-01-10T05:25:37;3.07;;;1.77;;
18046;SDS011;9148;51.454;13.862;2023-01-10T05:28:03;2.00;;;1.63;;
18046;SDS011;9148;51.454;13.862;2023-01-10T05:30:28;2.70;;;1.97;;
18046;SDS011;9148;51.454;13.862;2023-01-10T05:32:54;2.87;;;1.50;;
18046;SDS011;9148;51.454;13.862;2023-01-10T05:35:20;6.50;;;2.17;;
18046;SDS011;9148;51.454;13.862;2023-01-10T05:37:45;2.47;;;1.73;;
18046;SDS011;9148;51.454;13.862;2023-01-10T05:40:11;2.70;;;1.70;;
18046;SDS011;9148;51.454;13.862;2023-01-10T05:42:37;2.93;;;1.83;;
18046;SDS011;9148;51.454;13.862;2023-01-10T05:45:03;1.77;;;1.63;;
18046;SDS011;9148;51.454;13.862;2023-01-10T05:47:29;1.57;;;1.47;;
18046;SDS011;9148;51.454;13.862;2023-01-10T05:49:55;2.03;;;1.63;;
18046;SDS011;9148;51.454;13.862;2023-01-10T05:52:21;4.73;;;2.00;;
18046;SDS011;9148;51.454;13.862;2023-01-10T05:54:46;2.77;;;1.83;;
18046;SDS011;9148;51.454;13.862;2023-01-10T05:57:12;3.90;;;2.07;;
18046;SDS011;9148;51.454;13.862;2023-01-10T05:59:38;2.63;;;1.57;;
18046;SDS011;9148;51.454;13.862;2023-01-10T06:02:03;6.30;;;1.90;;
18046;SDS011;9148;51.454;13.862;2023-01-10T06:04:29;2.37;;;2.17;;
18046;SDS011;9148;51.454;13.862;2023-01-10T06:06:54;3.13;;;2.50;;
18046;SDS011;9148;51.454;13.862;2023-01-10T06:09:20;2.00;;;1.83;;
18046;SDS011;9148;51.454;13.862;2023-01-10T06:11:46;8.00;;;2.07;;
18046;SDS011;9148;51.454;13.862;2023-01-10T06:14:11;6.73;;;2.00;;
18046;SDS011;9148;51.454;13.862;2023-01-10T06:16:37;1.70;;;1.47;;
18046;SDS011;9148;51.454;13.862;2023-01-10T06:19:03;2.30;;;2.10;;
18046;SDS011;9148;51.454;13.862;2023-01-10T06:21:28;1.80;;;1.43;;
18046;SDS011;9148;51.454;13.862;2023-01-10T06:23:54;2.07;;;1.93;;
18046;SDS011;9148;51.454;13.862;2023-01-10T06:26:20;3.67;;;2.73;;
18046;SDS011;9148;51.454;13.862;2023-01-10T06:28:45;12.93;;;1.90;;
18046;SDS011;9148;51.454;13.862;2023-01-10T06:31:11;2.50;;;1.90;;
18046;SDS011;9148;51.454;13.862;2023-01-10T06:33:38;5.17;;;2.93;;
18046;SDS011;9148;51.454;13.862;2023-01-10T06:36:05;6.00;;;2.77;;
18046;SDS011;9148;51.454;13.862;2023-01-10T06:38:31;3.47;;;2.50;;
18046;SDS011;9148;51.454;13.862;2023-01-10T06:40:57;2.10;;;1.90;;
18046;SDS011;9148;51.454;13.862;2023-01-10T06:43:22;5.90;;;2.97;;
18046;SDS011;9148;51.454;13.862;2023-01-10T06:45:48;4.27;;;2.23;;
18046;SDS011;9148;51.454;13.862;2023-01-10T06:48:14;5.30;;;2.77;;
18046;SDS011;9148;51.454;13.862;2023-01-10T06:50:39;3.53;;;2.77;;
18046;SDS011;9148;51.454;13.862;2023-01-10T06:53:05;4.40;;;2.83;;
18046;SDS011;9148;51.454;13.862;2023-01-10T06:55:31;3.07;;;2.77;;
18046;SDS011;9148;51.454;13.862;2023-01-10T06:57:57;3.77;;;2.10;;
18046;SDS011;9148;51.454;13.862;2023-01-10T07:00:25;4.03;;;2.87;;
18046;SDS011;9148;51.454;13.862;2023-01-10T07:02:53;5.13;;;3.07;;
18046;SDS011;9148;51.454;13.862;2023-01-10T07:05:22;3.67;;;2.80;;
18046;SDS011;9148;51.454;13.862;2023-01-10T07:07:47;8.30;;;3.07;;
18046;SDS011;9148;51.454;13.862;2023-01-10T07:10:13;5.03;;;2.63;;
18046;SDS011;9148;51.454;13.862;2023-01-10T07:12:39;4.73;;;2.40;;
18046;SDS011;9148;51.454;13.862;2023-01-10T07:15:04;2.90;;;2.27;;
18046;SDS011;9148;51.454;13.862;2023-01-10T07:17:31;2.43;;;2.20;;
18046;SDS011;9148;51.454;13.862;2023-01-10T07:19:57;4.13;;;2.47;;
18046;SDS011;9148;51.454;13.862;2023-01-10T07:22:22;2.60;;;2.33;;
18046;SDS011;9148;51.454;13.862;2023-01-10T07:24:48;3.77;;;3.47;;
18046;SDS011;9148;51.454;13.862;2023-01-10T07:27:13;4.50;;;3.20;;
18046;SDS011;9148;51.454;13.862;2023-01-10T07:29:39;2.77;;;2.50;;
18046;SDS011;9148;51.454;13.862;2023-01-10T07:32:05;5.23;;;2.73;;
18046;SDS011;9148;51.454;13.862;2023-01-10T07:34:30;3.53;;;2.77;;
18046;SDS011;9148;51.454;13.862;2023-01-10T07:36:56;4.40;;;2.80;;
18046;SDS011;9148;51.454;13.862;2023-01-10T07:39:22;3.63;;;3.13;;
18046;SDS011;9148;51.454;13.862;2023-01-10T07:41:47;3.47;;;2.57;;
18046;SDS011;9148;51.454;13.862;2023-01-10T07:44:14;4.10;;;3.10;;
18046;SDS011;9148;51.454;13.862;2023-01-10T07:46:40;3.23;;;2.43;;
18046;SDS011;9148;51.454;13.862;2023-01-10T07:49:06;4.70;;;2.53;;
18046;SDS011;9148;51.454;13.862;2023-01-10T07:51:32;5.20;;;3.40;;
18046;SDS011;9148;51.454;13.862;2023-01-10T07:53:57;4.50;;;3.20;;
18046;SDS011;9148;51.454;13.862;2023-01-10T07:56:23;4.27;;;3.10;;
18046;SDS011;9148;51.454;13.862;2023-01-10T07:58:49;5.10;;;2.87;;
18046;SDS011;9148;51.454;13.862;2023-01-10T08:01:15;7.50;;;3.43;;
18046;SDS011;9148;51.454;13.862;2023-01-10T08:03:41;3.37;;;2.93;;
18046;SDS011;9148;51.454;13.862;2023-01-10T08:06:07;3.50;;;2.70;;
18046;SDS011;9148;51.454;13.862;2023-01-10T08:08:35;3.27;;;2.70;;
18046;SDS011;9148;51.454;13.862;2023-01-10T08:11:01;4.53;;;2.23;;
18046;SDS011;9148;51.454;13.862;2023-01-10T08:13:28;4.20;;;2.57;;
18046;SDS011;9148;51.454;13.862;2023-01-10T08:15:54;4.67;;;2.73;;
18046;SDS011;9148;51.454;13.862;2023-01-10T08:18:20;5.77;;;3.40;;
18046;SDS011;9148;51.454;13.862;2023-01-10T08:20:51;5.03;;;2.67;;
18046;SDS011;9148;51.454;13.862;2023-01-10T08:23:18;2.73;;;2.50;;
18046;SDS011;9148;51.454;13.862;2023-01-10T08:25:44;5.60;;;2.63;;
18046;SDS011;9148;51.454;13.862;2023-01-10T08:28:11;2.97;;;2.60;;
18046;SDS011;9148;51.454;13.862;2023-01-10T08:30:37;3.40;;;2.67;;
18046;SDS011;9148;51.454;13.862;2023-01-10T08:33:04;4.10;;;2.17;;
18046;SDS011;9148;51.454;13.862;2023-01-10T08:35:35;3.17;;;2.27;;
18046;SDS011;9148;51.454;13.862;2023-01-10T08:38:02;3.73;;;2.60;;
18046;SDS011;9148;51.454;13.862;2023-01-10T08:40:28;2.97;;;2.57;;
18046;SDS011;9148;51.454;13.862;2023-01-10T08:42:58;5.77;;;2.40;;
18046;SDS011;9148;51.454;13.862;2023-01-10T08:45:33;5.17;;;2.57;;
18046;SDS011;9148;51.454;13.862;2023-01-10T08:48:01;3.70;;;2.67;;
18046;SDS011;9148;51.454;13.862;2023-01-10T08:50:31;2.10;;;1.87;;
18046;SDS011;9148;51.454;13.862;2023-01-10T08:52:57;3.20;;;2.40;;
18046;SDS011;9148;51.454;13.862;2023-01-10T08:55:23;4.43;;;2.53;;
18046;SDS011;9148;51.454;13.862;2023-01-10T08:57:50;5.93;;;2.83;;
18046;SDS011;9148;51.454;13.862;2023-01-10T09:00:15;2.40;;;2.13;;
18046;SDS011;9148;51.454;13.862;2023-01-10T09:02:42;5.97;;;2.47;;
18046;SDS011;9148;51.454;13.862;2023-01-10T09:05:08;2.93;;;2.67;;
18046;SDS011;9148;51.454;13.862;2023-01-10T09:07:34;3.40;;;2.40;;
18046;SDS011;9148;51.454;13.862;2023-01-10T09:10:00;8.83;;;2.67;;
18046;SDS011;9148;51.454;13.862;2023-01-10T09:12:26;2.97;;;2.23;;
18046;SDS011;9148;51.454;13.862;2023-01-10T09:15:11;3.00;;;2.27;;
18046;SDS011;9148;51.454;13.862;2023-01-10T09:17:36;3.47;;;1.73;;
18046;SDS011;9148;51.454;13.862;2023-01-10T09:20:02;4.13;;;2.13;;
18046;SDS011;9148;51.454;13.862;2023-01-10T09:22:34;3.17;;;2.83;;
18046;SDS011;9148;51.454;13.862;2023-01-10T09:25:03;4.17;;;2.43;;
18046;SDS011;9148;51.454;13.862;2023-01-10T09:27:29;3.90;;;2.60;;
18046;SDS011;9148;51.454;13.862;2023-01-10T09:29:55;4.43;;;2.23;;
18046;SDS011;9148;51.454;13.862;2023-01-10T09:32:20;4.83;;;1.97;;
18046;SDS011;9148;51.454;13.862;2023-01-10T09:34:46;4.00;;;2.07;;
18046;SDS011;9148;51.454;13.862;2023-01-10T09:37:12;6.47;;;2.83;;
18046;SDS011;9148;51.454;13.862;2023-01-10T09:39:37;3.50;;;2.13;;
18046;SDS011;9148;51.454;13.862;2023-01-10T09:45:27;3.43;;;2.47;;
18046;SDS011;9148;51.454;13.862;2023-01-10T09:48:07;6.03;;;1.90;;
18046;SDS011;9148;51.454;13.862;2023-01-10T09:53:44;1.90;;;1.70;;
18046;SDS011;9148;51.454;13.862;2023-01-10T09:56:12;4.47;;;2.37;;
18046;SDS011;9148;51.454;13.862;2023-01-10T09:58:39;3.10;;;2.10;;
18046;SDS011;9148;51.454;13.862;2023-01-10T10:01:14;3.07;;;2.00;;
18046;SDS011;9148;51.454;13.862;2023-01-10T10:06:41;4.57;;;2.10;;
18046;SDS011;9148;51.454;13.862;2023-01-10T10:09:09;2.00;;;1.40;;
18046;SDS011;9148;51.454;13.862;2023-01-10T10:11:45;4.50;;;2.10;;
18046;SDS011;9148;51.454;13.862;2023-01-10T10:14:56;2.97;;;1.30;;
18046;SDS011;9148;51.454;13.862;2023-01-10T10:23:30;1.30;;;1.20;;
18046;SDS011;9148;51.454;13.862;2023-01-10T10:26:35;2.80;;;1.47;;
18046;SDS011;9148;51.454;13.862;2023-01-10T10:29:45;3.50;;;1.83;;
18046;SDS011;9148;51.454;13.862;2023-01-10T10:32:34;1.20;;;0.97;;
18046;SDS011;9148;51.454;13.862;2023-01-10T10:38:03;3.07;;;1.90;;
18046;SDS011;9148;51.454;13.862;2023-01-10T10:40:37;2.80;;;1.90;;
18046;SDS011;9148;51.454;13.862;2023-01-10T10:43:14;4.37;;;1.90;;
18046;SDS011;9148;51.454;13.862;2023-01-10T10:46:05;1.83;;;1.60;;
18046;SDS011;9148;51.454;13.862;2023-01-10T10:48:44;2.40;;;1.87;;
18046;SDS011;9148;51.454;13.862;2023-01-10T10:51:33;3.50;;;1.50;;
18046;SDS011;9148;51.454;13.862;2023-01-10T10:54:09;3.80;;;1.50;;
18046;SDS011;9148;51.454;13.862;2023-01-10T10:56:37;2.40;;;1.80;;
18046;SDS011;9148;51.454;13.862;2023-01-10T10:59:03;2.17;;;1.50;;
18046;SDS011;9148;51.454;13.862;2023-01-10T11:01:30;1.07;;;0.97;;
18046;SDS011;9148;51.454;13.862;2023-01-10T11:03:57;2.73;;;1.43;;
18046;SDS011;9148;51.454;13.862;2023-01-10T11:06:27;0.90;;;0.80;;
18046;SDS011;9148;51.454;13.862;2023-01-10T11:08:56;5.60;;;1.70;;
18046;SDS011;9148;51.454;13.862;2023-01-10T11:11:28;4.30;;;1.30;;
18046;SDS011;9148;51.454;13.862;2023-01-10T11:13:57;4.73;;;1.10;;
18046;SDS011;9148;51.454;13.862;2023-01-10T11:16:35;1.60;;;1.07;;
18046;SDS011;9148;51.454;13.862;2023-01-10T11:19:21;0.83;;;0.83;;
18046;SDS011;9148;51.454;13.862;2023-01-10T11:21:53;0.90;;;0.70;;
18046;SDS011;9148;51.454;13.862;2023-01-10T11:27:04;1.20;;;1.10;;
18046;SDS011;9148;51.454;13.862;2023-01-10T11:30:06;2.30;;;1.10;;
18046;SDS011;9148;51.454;13.862;2023-01-10T11:32:34;2.00;;;1.23;;
18046;SDS011;9148;51.454;13.862;2023-01-10T11:35:16;1.37;;;1.00;;
18046;SDS011;9148;51.454;13.862;2023-01-10T11:37:58;2.53;;;1.13;;
18046;SDS011;9148;51.454;13.862;2023-01-10T11:40:30;1.23;;;1.10;;
18046;SDS011;9148;51.454;13.862;2023-01-10T11:42:58;1.00;;;0.60;;
18046;SDS011;9148;51.454;13.862;2023-01-10T11:45:26;1.80;;;0.87;;
18046;SDS011;9148;51.454;13.862;2023-01-10T11:47:59;1.77;;;0.87;;
18046;SDS011;9148;51.454;13.862;2023-01-10T11:50:37;0.80;;;0.80;;
18046;SDS011;9148;51.454;13.862;2023-01-10T11:53:06;0.87;;;0.77;;
18046;SDS011;9148;51.454;13.862;2023-01-10T11:55:55;0.60;;;0.60;;
18046;SDS011;9148;51.454;13.862;2023-01-10T11:58:20;1.77;;;0.83;;
18046;SDS011;9148;51.454;13.862;2023-01-10T12:00:47;1.60;;;0.90;;
18046;SDS011;9148;51.454;13.862;2023-01-10T12:05:56;0.57;;;0.50;;
18046;SDS011;9148;51.454;13.862;2023-01-10T12:11:04;1.67;;;0.70;;
18046;SDS011;9148;51.454;13.862;2023-01-10T12:13:47;1.70;;;1.23;;
18046;SDS011;9148;51.454;13.862;2023-01-10T12:18:43;3.27;;;1.17;;
18046;SDS011;9148;51.454;13.862;2023-01-10T12:21:09;2.47;;;0.80;;
18046;SDS011;9148;51.454;13.862;2023-01-10T12:23:39;2.17;;;1.07;;
18046;SDS011;9148;51.454;13.862;2023-01-10T12:26:08;1.63;;;0.73;;
18046;SDS011;9148;51.454;13.862;2023-01-10T12:28:40;3.13;;;1.00;;
18046;SDS011;9148;51.454;13.862;2023-01-10T12:31:13;1.80;;;1.33;;
18046;SDS011;9148;51.454;13.862;2023-01-10T12:33:42;2.73;;;1.17;;
18046;SDS011;9148;51.454;13.862;2023-01-10T12:36:13;1.80;;;1.13;;
18046;SDS011;9148;51.454;13.862;2023-01-10T12:38:54;6.30;;;1.07;;
18046;SDS011;9148;51.454;13.862;2023-01-10T12:44:39;2.20;;;1.77;;
18046;SDS011;9148;51.454;13.862;2023-01-10T12:47:16;2.33;;;1.10;;
18046;SDS011;9148;51.454;13.862;2023-01-10T12:50:04;4.70;;;1.30;;
18046;SDS011;9148;51.454;13.862;2023-01-10T12:52:53;1.83;;;1.53;;
18046;SDS011;9148;51.454;13.862;2023-01-10T12:55:45;1.80;;;1.07;;
18046;SDS011;9148;51.454;13.862;2023-01-10T12:58:16;1.90;;;1.10;;
18046;SDS011;9148;51.454;13.862;2023-01-10T13:00:49;6.03;;;1.27;;
18046;SDS011;9148;51.454;13.862;2023-01-10T13:03:19;2.43;;;1.20;;
18046;SDS011;9148;51.454;13.862;2023-01-10T13:05:46;0.80;;;0.70;;
18046;SDS011;9148;51.454;13.862;2023-01-10T13:08:14;3.50;;;1.90;;
18046;SDS011;9148;51.454;13.862;2023-01-10T13:10:47;5.80;;;1.27;;
18046;SDS011;9148;51.454;13.862;2023-01-10T13:16:15;2.10;;;0.97;;
18046;SDS011;9148;51.454;13.862;2023-01-10T13:21:45;3.60;;;1.43;;
18046;SDS011;9148;51.454;13.862;2023-01-10T13:29:40;1.17;;;0.90;;
18046;SDS011;9148;51.454;13.862;2023-01-10T13:32:20;1.60;;;0.97;;
18046;SDS011;9148;51.454;13.862;2023-01-10T13:34:54;1.80;;;1.33;;
18046;SDS011;9148;51.454;13.862;2023-01-10T13:37:38;2.27;;;1.03;;
18046;SDS011;9148;51.454;13.862;2023-01-10T13:40:06;1.90;;;1.03;;
18046;SDS011;9148;51.454;13.862;2023-01-10T13:42:33;9.07;;;1.27;;
18046;SDS011;9148;51.454;13.862;2023-01-10T13:45:26;2.50;;;0.80;;
18046;SDS011;9148;51.454;13.862;2023-01-10T13:57:58;5.60;;;1.07;;
18046;SDS011;9148;51.454;13.862;2023-01-10T14:06:31;3.67;;;0.70;;
18046;SDS011;9148;51.454;13.862;2023-01-10T14:09:26;3.40;;;1.00;;
18046;SDS011;9148;51.454;13.862;2023-01-10T14:11:58;2.27;;;1.00;;
18046;SDS011;9148;51.454;13.862;2023-01-10T14:14:32;1.83;;;0.97;;
18046;SDS011;9148;51.454;13.862;2023-01-10T14:19:45;3.33;;;1.37;;
18046;SDS011;9148;51.454;13.862;2023-01-10T14:22:28;5.33;;;1.60;;
18046;SDS011;9148;51.454;13.862;2023-01-10T14:25:05;2.13;;;1.50;;
18046;SDS011;9148;51.454;13.862;2023-01-10T14:27:43;3.13;;;1.47;;
18046;SDS011;9148;51.454;13.862;2023-01-10T14:30:20;1.70;;;1.23;;
18046;SDS011;9148;51.454;13.862;2023-01-10T14:33:06;2.73;;;1.40;;
18046;SDS011;9148;51.454;13.862;2023-01-10T14:35:44;3.57;;;1.17;;
18046;SDS011;9148;51.454;13.862;2023-01-10T14:38:17;2.20;;;1.27;;
18046;SDS011;9148;51.454;13.862;2023-01-10T14:40:58;2.57;;;1.53;;
18046;SDS011;9148;51.454;13.862;2023-01-10T14:44:07;2.70;;;1.10;;
18046;SDS011;9148;51.454;13.862;2023-01-10T14:46:45;0.90;;;0.90;;
18046;SDS011;9148;51.454;13.862;2023-01-10T14:49:18;7.30;;;2.93;;
18046;SDS011;9148;51.454;13.862;2023-01-10T14:51:52;11.83;;;4.70;;
18046;SDS011;9148;51.454;13.862;2023-01-10T14:54:25;5.90;;;4.07;;
18046;SDS011;9148;51.454;13.862;2023-01-10T14:56:53;2.00;;;1.90;;
18046;SDS011;9148;51.454;13.862;2023-01-10T15:01:54;5.87;;;3.50;;
18046;SDS011;9148;51.454;13.862;2023-01-10T15:05:23;5.30;;;3.67;;
18046;SDS011;9148;51.454;13.862;2023-01-10T15:07:52;2.90;;;1.83;;
18046;SDS011;9148;51.454;13.862;2023-01-10T15:10:26;4.93;;;1.73;;
18046;SDS011;9148;51.454;13.862;2023-01-10T15:12:56;5.00;;;1.40;;
18046;SDS011;9148;51.454;13.862;2023-01-10T15:15:28;9.77;;;5.17;;
18046;SDS011;9148;51.454;13.862;2023-01-10T15:17:58;4.03;;;3.23;;
18046;SDS011;9148;51.454;13.862;2023-01-10T15:20:27;4.70;;;2.67;;
18046;SDS011;9148;51.454;13.862;2023-01-10T15:22:55;4.97;;;3.03;;
18046;SDS011;9148;51.454;13.862;2023-01-10T15:25:29;4.37;;;2.23;;
18046;SDS011;9148;51.454;13.862;2023-01-10T15:28:02;6.67;;;2.57;;
18046;SDS011;9148;51.454;13.862;2023-01-10T15:30:34;1.37;;;1.27;;
18046;SDS011;9148;51.454;13.862;2023-01-10T15:33:05;4.17;;;1.53;;
18046;SDS011;9148;51.454;13.862;2023-01-10T15:35:37;2.83;;;1.13;;
18046;SDS011;9148;51.454;13.862;2023-01-10T15:38:04;2.10;;;0.90;;
18046;SDS011;9148;51.454;13.862;2023-01-10T15:40:33;1.30;;;0.93;;
18046;SDS011;9148;51.454;13.862;2023-01-10T15:43:22;4.47;;;2.47;;
18046;SDS011;9148;51.454;13.862;2023-01-10T15:45:49;3.07;;;1.67;;
18046;SDS011;9148;51.454;13.862;2023-01-10T15:48:35;7.93;;;2.13;;
18046;SDS011;9148;51.454;13.862;2023-01-10T15:53:54;2.50;;;1.40;;
18046;SDS011;9148;51.454;13.862;2023-01-10T15:56:29;2.10;;;1.80;;
18046;SDS011;9148;51.454;13.862;2023-01-10T15:59:01;4.67;;;1.40;;
18046;SDS011;9148;51.454;13.862;2023-01-10T16:01:29;3.43;;;1.67;;
18046;SDS011;9148;51.454;13.862;2023-01-10T16:04:01;2.00;;;1.53;;
18046;SDS011;9148;51.454;13.862;2023-01-10T16:06:32;4.00;;;1.57;;
18046;SDS011;9148;51.454;13.862;2023-01-10T16:09:02;2.43;;;1.17;;
18046;SDS011;9148;51.454;13.862;2023-01-10T16:11:34;2.60;;;1.57;;
18046;SDS011;9148;51.454;13.862;2023-01-10T16:14:29;1.40;;;1.30;;
18046;SDS011;9148;51.454;13.862;2023-01-10T16:16:54;0.93;;;0.70;;
18046;SDS011;9148;51.454;13.862;2023-01-10T16:19:20;1.23;;;1.13;;
18046;SDS011;9148;51.454;13.862;2023-01-10T16:21:47;1.20;;;1.10;;
18046;SDS011;9148;51.454;13.862;2023-01-10T16:24:22;7.47;;;1.60;;
18046;SDS011;9148;51.454;13.862;2023-01-10T16:26:50;2.83;;;1.10;;
18046;SDS011;9148;51.454;13.862;2023-01-10T16:29:16;0.87;;;0.70;;
18046;SDS011;9148;51.454;13.862;2023-01-10T16:31:44;3.87;;;1.57;;
18046;SDS011;9148;51.454;13.862;2023-01-10T16:34:10;4.67;;;2.07;;
18046;SDS011;9148;51.454;13.862;2023-01-10T16:36:36;1.17;;;1.07;;
18046;SDS011;9148;51.454;13.862;2023-01-10T16:42:00;3.23;;;1.33;;
18046;SDS011;9148;51.454;13.862;2023-01-10T16:44:44;1.27;;;1.10;;
18046;SDS011;9148;51.454;13.862;2023-01-10T16:47:10;6.00;;;1.67;;
18046;SDS011;9148;51.454;13.862;2023-01-10T16:49:35;1.70;;;1.33;;
18046;SDS011;9148;51.454;13.862;2023-01-10T16:52:01;1.00;;;1.00;;
18046;SDS011;9148;51.454;13.862;2023-01-10T16:54:27;1.30;;;1.10;;
18046;SDS011;9148;51.454;13.862;2023-01-10T16:56:53;1.10;;;0.80;;
18046;SDS011;9148;51.454;13.862;2023-01-10T16:59:19;3.17;;;1.30;;
18046;SDS011;9148;51.454;13.862;2023-01-10T17:01:54;1.30;;;1.20;;
18046;SDS011;9148;51.454;13.862;2023-01-10T17:04:23;3.07;;;0.97;;
18046;SDS011;9148;51.454;13.862;2023-01-10T17:06:52;1.73;;;0.93;;